Back to Top

Language: 

My Weather Underground Personal Weather Station Historical Data with Graphs...

Delerius Weather Station Historical Data
Daily Summary for March 26, 2017 Units:  English    Metric   Both
« Previous Day
Next Day »
Daily Weekly Monthly Yearly Custom
  High: Low: Average:
Temperature: 57.9 °F 30.6 °F 44.8 °F
Dew Point: 40.8 °F 27.7 °F 34.8 °F
Humidity: 91 % 44 % 70 %
Wind Speed: 8.0 mph 0.0 mph 2.9 mph
Wind Gust: 16.0 mph - -
Wind:- - East
Pressure: 30.40 in 30.29 in -
Precipitation: 0.00 in    
Historical Graphs
 
 
Tabular Data for March 26, 2017
Time Temperature Dew Point Pressure Wind Wind Speed Wind Gust Humidity Rainfall Rate (Hourly) solar Conditions
00:04 35.4 °F 30.5 °F 30.40 in Calm     82 % 0.00 in 0 W/m2
00:09 35.2 °F 30.3 °F 30.40 in Calm     82 % 0.00 in 0 W/m2
00:14 35.2 °F 30.6 °F 30.40 in Calm     83 % 0.00 in 0 W/m2
00:19 35.1 °F 30.4 °F 30.40 in Calm   2.0 mph 83 % 0.00 in 0 W/m2
00:24 35.2 °F 30.6 °F 30.40 in NE 1.0 mph 2.0 mph 83 % 0.00 in 0 W/m2
00:29 35.2 °F 30.3 °F 30.40 in NE 1.0 mph 2.0 mph 82 % 0.00 in 0 W/m2
00:30 35.2 °F 30.3 °F 30.40 in NE 1.0 mph 2.0 mph 82 % 0.00 in 0 W/m2
00:35 35.2 °F 30.3 °F 30.39 in Calm   2.0 mph 82 % 0.00 in 0 W/m2
00:40 35.2 °F 30.3 °F 30.39 in Calm   2.0 mph 82 % 0.00 in 0 W/m2
00:45 35.2 °F 30.3 °F 30.39 in Calm   2.0 mph 82 % 0.00 in 0 W/m2
00:50 35.2 °F 30.6 °F 30.39 in Calm     83 % 0.00 in 0 W/m2
00:55 35.1 °F 30.1 °F 30.39 in Calm     82 % 0.00 in 0 W/m2
02:00 34.7 °F 29.8 °F 30.38 in Calm     82 % 0.00 in 0 W/m2
02:05 34.3 °F 29.4 °F 30.38 in Calm     82 % 0.00 in 0 W/m2
02:10 34.2 °F 29.5 °F 30.38 in Calm     83 % 0.00 in 0 W/m2
02:20 33.8 °F 29.5 °F 30.39 in Calm     84 % 0.00 in 0 W/m2
02:25 33.6 °F 29.3 °F 30.38 in Calm     84 % 0.00 in 0 W/m2
02:30 33.6 °F 29.3 °F 30.38 in Calm     84 % 0.00 in 0 W/m2
02:35 33.6 °F 29.3 °F 30.38 in Calm     84 % 0.00 in 0 W/m2
02:41 33.4 °F 29.1 °F 30.38 in Calm     84 % 0.00 in 0 W/m2
02:42 33.4 °F 29.1 °F 30.38 in Calm     84 % 0.00 in 0 W/m2
02:47 33.3 °F 28.9 °F 30.38 in Calm     84 % 0.00 in 0 W/m2
02:52 33.1 °F 28.8 °F 30.38 in Calm     84 % 0.00 in 0 W/m2
02:57 33.1 °F 29.1 °F 30.37 in Calm     85 % 0.00 in 0 W/m2
03:02 33.1 °F 29.1 °F 30.37 in Calm   2.0 mph 85 % 0.00 in 0 W/m2
03:07 32.9 °F 28.9 °F 30.37 in Calm   2.0 mph 85 % 0.00 in 0 W/m2
03:12 32.7 °F 28.7 °F 30.37 in Calm     85 % 0.00 in 0 W/m2
03:17 32.7 °F 29.0 °F 30.37 in Calm     86 % 0.00 in 0 W/m2
03:22 32.7 °F 29.0 °F 30.38 in Calm     86 % 0.00 in 0 W/m2
03:32 32.5 °F 28.8 °F 30.37 in Calm   1.0 mph 86 % 0.00 in 0 W/m2
03:37 32.5 °F 28.8 °F 30.37 in Calm   1.0 mph 86 % 0.00 in 0 W/m2
03:42 32.5 °F 28.8 °F 30.37 in Calm     86 % 0.00 in 0 W/m2
03:47 32.4 °F 28.6 °F 30.37 in Calm     86 % 0.00 in 0 W/m2
03:52 32.4 °F 28.9 °F 30.37 in Calm     87 % 0.00 in 0 W/m2
03:57 32.4 °F 28.9 °F 30.37 in Calm     87 % 0.00 in 0 W/m2
04:02 32.4 °F 28.9 °F 30.37 in Calm     87 % 0.00 in 0 W/m2
04:03 32.4 °F 28.9 °F 30.37 in Calm     87 % 0.00 in 0 W/m2
04:08 32.2 °F 28.7 °F 30.37 in Calm     87 % 0.00 in 0 W/m2
04:13 32.2 °F 28.7 °F 30.37 in Calm     87 % 0.00 in 0 W/m2
04:18 32.2 °F 28.7 °F 30.36 in Calm     87 % 0.00 in 0 W/m2
04:23 32.0 °F 28.6 °F 30.36 in Calm     87 % 0.00 in 0 W/m2
04:28 31.8 °F 28.4 °F 30.36 in Calm     87 % 0.00 in 0 W/m2
04:33 31.8 °F 28.7 °F 30.36 in Calm     88 % 0.00 in 0 W/m2
04:38 31.6 °F 28.5 °F 30.37 in Calm     88 % 0.00 in 0 W/m2
04:43 31.6 °F 28.5 °F 30.37 in Calm     88 % 0.00 in 0 W/m2
04:48 31.5 °F 28.3 °F 30.37 in Calm     88 % 0.00 in 0 W/m2
04:53 31.5 °F 28.3 °F 30.36 in Calm     88 % 0.00 in 0 W/m2
04:58 31.5 °F 28.3 °F 30.36 in Calm     88 % 0.00 in 0 W/m2
05:03 31.3 °F 28.4 °F 30.36 in Calm     89 % 0.00 in 0 W/m2
05:08 31.3 °F 28.1 °F 30.36 in Calm     88 % 0.00 in 0 W/m2
05:13 31.5 °F 28.6 °F 30.36 in Calm     89 % 0.00 in 0 W/m2
05:18 31.5 °F 28.6 °F 30.36 in Calm   2.0 mph 89 % 0.00 in 0 W/m2
05:23 31.5 °F 28.6 °F 30.36 in NNE 1.0 mph 2.0 mph 89 % 0.00 in 0 W/m2
05:28 31.3 °F 28.4 °F 30.36 in Calm   2.0 mph 89 % 0.00 in 0 W/m2
05:33 31.3 °F 28.4 °F 30.36 in Calm     89 % 0.00 in 0 W/m2
05:38 31.3 °F 28.4 °F 30.36 in Calm     89 % 0.00 in 0 W/m2
05:43 31.3 °F 28.4 °F 30.36 in Calm     89 % 0.00 in 0 W/m2
05:48 31.3 °F 28.4 °F 30.36 in Calm     89 % 0.00 in 0 W/m2
05:53 31.3 °F 28.4 °F 30.35 in Calm     89 % 0.00 in 0 W/m2
05:58 31.3 °F 28.4 °F 30.36 in Calm     89 % 0.00 in 0 W/m2
06:03 31.3 °F 28.4 °F 30.36 in Calm     89 % 0.00 in 0 W/m2
06:08 31.1 °F 28.2 °F 30.36 in Calm     89 % 0.00 in 0 W/m2
06:13 30.9 °F 28.1 °F 30.36 in Calm     89 % 0.00 in 0 W/m2
06:19 30.9 °F 28.1 °F 30.36 in Calm     89 % 0.00 in 0 W/m2
06:29 30.9 °F 28.1 °F 30.36 in Calm     89 % 0.00 in 0 W/m2
06:34 30.7 °F 27.9 °F 30.36 in Calm     89 % 0.00 in 0 W/m2
06:39 30.7 °F 27.9 °F 30.36 in Calm     89 % 0.00 in 0 W/m2
06:44 30.6 °F 27.7 °F 30.36 in Calm     89 % 0.00 in 5 W/m2
06:49 30.7 °F 28.2 °F 30.36 in Calm     90 % 0.00 in 0 W/m2
06:54 30.7 °F 28.2 °F 30.36 in Calm     90 % 0.00 in 0 W/m2
06:59 30.7 °F 28.2 °F 30.36 in Calm     90 % 0.00 in 5 W/m2
07:04 30.7 °F 28.2 °F 30.36 in Calm     90 % 0.00 in 7 W/m2
07:09 30.7 °F 28.2 °F 30.36 in Calm     90 % 0.00 in 12 W/m2
07:14 30.7 °F 28.2 °F 30.37 in Calm     90 % 0.00 in 18 W/m2
07:19 30.7 °F 28.2 °F 30.36 in Calm     90 % 0.00 in 23 W/m2
07:24 30.7 °F 28.2 °F 30.37 in Calm     90 % 0.00 in 28 W/m2
07:29 30.9 °F 28.3 °F 30.37 in Calm     90 % 0.00 in 33 W/m2
07:34 31.1 °F 28.5 °F 30.37 in Calm     90 % 0.00 in 40 W/m2
07:39 31.3 °F 28.7 °F 30.37 in Calm     90 % 0.00 in 47 W/m2
07:44 31.3 °F 28.7 °F 30.37 in Calm     90 % 0.00 in 51 W/m2
07:49 31.5 °F 29.1 °F 30.37 in Calm     91 % 0.00 in 56 W/m2
07:54 31.6 °F 29.3 °F 30.37 in Calm   2.0 mph 91 % 0.00 in 62 W/m2
07:59 32.0 °F 29.7 °F 30.37 in Calm   2.0 mph 91 % 0.00 in 70 W/m2
08:04 32.5 °F 30.2 °F 30.37 in Calm   2.0 mph 91 % 0.00 in 114 W/m2
08:09 32.9 °F 30.6 °F 30.37 in Calm     91 % 0.00 in 128 W/m2
08:14 33.3 °F 30.9 °F 30.37 in Calm     91 % 0.00 in 135 W/m2
08:19 34.2 °F 31.8 °F 30.37 in Calm     91 % 0.00 in 151 W/m2
08:24 34.9 °F 32.0 °F 30.38 in Calm     89 % 0.00 in 160 W/m2
08:29 35.4 °F 32.2 °F 30.38 in Calm     88 % 0.00 in 162 W/m2
08:34 36.3 °F 32.8 °F 30.38 in Calm     87 % 0.00 in 186 W/m2
08:39 37.2 °F 33.1 °F 30.37 in Calm     85 % 0.00 in 188 W/m2
08:44 37.9 °F 33.5 °F 30.37 in Calm   1.0 mph 84 % 0.00 in 227 W/m2
08:49 38.8 °F 34.1 °F 30.37 in Calm   1.0 mph 83 % 0.00 in 262 W/m2
08:54 39.4 °F 34.0 °F 30.37 in Calm   1.0 mph 81 % 0.00 in 288 W/m2
08:59 39.9 °F 34.2 °F 30.37 in Calm     80 % 0.00 in 294 W/m2
09:04 40.3 °F 34.6 °F 30.37 in Calm     80 % 0.00 in 309 W/m2
09:09 40.6 °F 35.3 °F 30.37 in Calm     81 % 0.00 in 320 W/m2
09:14 41.5 °F 35.8 °F 30.37 in Calm   1.0 mph 80 % 0.00 in 327 W/m2
09:19 42.4 °F 36.1 °F 30.37 in Calm   1.0 mph 78 % 0.00 in 315 W/m2
09:24 43.3 °F 36.6 °F 30.36 in Calm   1.0 mph 77 % 0.00 in 338 W/m2
09:29 44.1 °F 36.3 °F 30.36 in Calm   2.0 mph 74 % 0.00 in 348 W/m2
09:34 44.8 °F 35.9 °F 30.36 in NW 1.0 mph 4.0 mph 71 % 0.00 in 388 W/m2
09:39 45.1 °F 35.9 °F 30.36 in WNW 1.0 mph 4.0 mph 70 % 0.00 in 385 W/m2
09:44 45.9 °F 35.9 °F 30.36 in Calm   2.0 mph 68 % 0.00 in 404 W/m2
09:49 47.1 °F 36.3 °F 30.37 in Calm   1.0 mph 66 % 0.00 in 362 W/m2
09:54 47.8 °F 36.2 °F 30.37 in Calm   2.0 mph 64 % 0.00 in 396 W/m2
09:59 48.4 °F 35.5 °F 30.37 in NNE 2.0 mph 7.0 mph 61 % 0.00 in 438 W/m2
10:04 48.4 °F 35.1 °F 30.37 in NE 3.0 mph 7.0 mph 60 % 0.00 in 427 W/m2
10:09 48.4 °F 34.7 °F 30.37 in NE 1.0 mph 6.0 mph 59 % 0.00 in 436 W/m2
10:14 48.7 °F 35.0 °F 30.37 in NE 1.0 mph 5.0 mph 59 % 0.00 in 443 W/m2
10:19 48.9 °F 35.2 °F 30.37 in NE 1.0 mph 5.0 mph 59 % 0.00 in 469 W/m2
10:24 49.3 °F 35.1 °F 30.37 in NE 1.0 mph 5.0 mph 58 % 0.00 in 490 W/m2
10:29 49.5 °F 34.8 °F 30.37 in NE 2.0 mph 6.0 mph 57 % 0.00 in 464 W/m2
10:34 49.3 °F 35.1 °F 30.37 in ENE 2.0 mph 6.0 mph 58 % 0.00 in 508 W/m2
10:39 49.5 °F 35.7 °F 30.37 in NE 1.0 mph 6.0 mph 59 % 0.00 in 490 W/m2
10:44 50.2 °F 36.0 °F 30.36 in NE 1.0 mph 4.0 mph 58 % 0.00 in 531 W/m2
10:49 50.5 °F 36.3 °F 30.36 in Calm   4.0 mph 58 % 0.00 in 548 W/m2
10:54 51.1 °F 36.8 °F 30.37 in NE 1.0 mph 7.0 mph 58 % 0.00 in 534 W/m2
10:59 51.3 °F 36.5 °F 30.36 in ENE 2.0 mph 7.0 mph 57 % 0.00 in 566 W/m2
11:04 51.4 °F 37.1 °F 30.36 in East 2.0 mph 6.0 mph 58 % 0.00 in 582 W/m2
11:09 51.6 °F 36.9 °F 30.36 in ENE 2.0 mph 7.0 mph 57 % 0.00 in 596 W/m2
11:14 51.4 °F 37.1 °F 30.36 in NE 4.0 mph 9.0 mph 58 % 0.00 in 603 W/m2
11:19 51.3 °F 37.0 °F 30.36 in NE 5.0 mph 9.0 mph 58 % 0.00 in 612 W/m2
11:24 51.3 °F 37.4 °F 30.37 in NE 4.0 mph 9.0 mph 59 % 0.00 in 610 W/m2
11:29 51.4 °F 37.6 °F 30.36 in ENE 4.0 mph 9.0 mph 59 % 0.00 in 603 W/m2
11:34 52.0 °F 38.5 °F 30.36 in ENE 3.0 mph 9.0 mph 60 % 0.00 in 612 W/m2
11:37 52.2 °F 38.3 °F 30.36 in ENE 2.0 mph 8.0 mph 59 % 0.00 in 615 W/m2
11:42 52.7 °F 38.3 °F 30.36 in NE 2.0 mph 9.0 mph 58 % 0.00 in 610 W/m2
11:47 53.2 °F 38.4 °F 30.36 in ENE 3.0 mph 9.0 mph 57 % 0.00 in 636 W/m2
11:52 53.8 °F 38.0 °F 30.36 in East 4.0 mph 9.0 mph 55 % 0.00 in 657 W/m2
11:57 53.8 °F 38.0 °F 30.36 in East 4.0 mph 9.0 mph 55 % 0.00 in 640 W/m2
12:02 53.8 °F 38.4 °F 30.36 in East 4.0 mph 8.0 mph 56 % 0.00 in 631 W/m2
12:07 54.0 °F 38.1 °F 30.35 in ENE 5.0 mph 9.0 mph 55 % 0.00 in 677 W/m2
12:12 54.1 °F 38.3 °F 30.35 in ENE 4.0 mph 9.0 mph 55 % 0.00 in 633 W/m2
12:17 54.3 °F 38.5 °F 30.35 in East 4.0 mph 7.0 mph 55 % 0.00 in 663 W/m2
12:18 54.7 °F 38.4 °F 30.35 in ENE 4.0 mph 9.0 mph 54 % 0.00 in 657 W/m2
12:23 54.3 °F 36.6 °F 30.35 in ENE 5.0 mph 11.0 mph 51 % 0.00 in 642 W/m2
12:28 54.7 °F 37.4 °F 30.35 in East 6.0 mph 12.0 mph 52 % 0.00 in 661 W/m2
12:33 54.7 °F 37.4 °F 30.35 in East 5.0 mph 12.0 mph 52 % 0.00 in 661 W/m2
12:39 54.7 °F 37.9 °F 30.35 in ENE 5.0 mph 10.0 mph 53 % 0.00 in 654 W/m2
12:44 54.9 °F 38.0 °F 30.35 in East 5.0 mph 9.0 mph 53 % 0.00 in 664 W/m2
12:49 54.9 °F 38.5 °F 30.35 in ENE 5.0 mph 9.0 mph 54 % 0.00 in 659 W/m2
12:54 55.0 °F 38.2 °F 30.35 in East 5.0 mph 10.0 mph 53 % 0.00 in 691 W/m2
12:59 55.2 °F 38.9 °F 30.34 in East 6.0 mph 13.0 mph 54 % 0.00 in 707 W/m2
13:04 55.8 °F 39.4 °F 30.34 in East 6.0 mph 13.0 mph 54 % 0.00 in 666 W/m2
13:09 55.6 °F 38.2 °F 30.34 in East 5.0 mph 11.0 mph 52 % 0.00 in 684 W/m2
13:14 55.6 °F 38.7 °F 30.34 in East 6.0 mph 11.0 mph 53 % 0.00 in 684 W/m2
13:19 56.1 °F 39.7 °F 30.34 in East 5.0 mph 10.0 mph 54 % 0.00 in 679 W/m2
13:24 56.3 °F 37.9 °F 30.34 in ENE 5.0 mph 11.0 mph 50 % 0.00 in 679 W/m2
13:29 56.5 °F 37.5 °F 30.33 in NE 6.0 mph 11.0 mph 49 % 0.00 in 656 W/m2
13:34 56.7 °F 37.2 °F 30.33 in ENE 6.0 mph 11.0 mph 48 % 0.00 in 652 W/m2
13:39 56.7 °F 37.2 °F 30.33 in ENE 5.0 mph 10.0 mph 48 % 0.00 in 638 W/m2
13:44 56.8 °F 37.9 °F 30.33 in ENE 5.0 mph 11.0 mph 49 % 0.00 in 599 W/m2
13:49 56.8 °F 37.3 °F 30.33 in ENE 5.0 mph 11.0 mph 48 % 0.00 in 622 W/m2
13:54 56.8 °F 37.9 °F 30.33 in ENE 5.0 mph 13.0 mph 49 % 0.00 in 640 W/m2
13:59 57.2 °F 37.1 °F 30.33 in East 5.0 mph 13.0 mph 47 % 0.00 in 613 W/m2
14:04 57.4 °F 37.3 °F 30.33 in ENE 6.0 mph 10.0 mph 47 % 0.00 in 573 W/m2
14:09 57.2 °F 37.7 °F 30.32 in ENE 7.0 mph 16.0 mph 48 % 0.00 in 647 W/m2
14:14 57.4 °F 38.9 °F 30.32 in ENE 6.0 mph 16.0 mph 50 % 0.00 in 647 W/m2
14:19 57.6 °F 38.0 °F 30.32 in ENE 5.0 mph 12.0 mph 48 % 0.00 in 631 W/m2
14:24 57.0 °F 37.5 °F 30.32 in ENE 6.0 mph 12.0 mph 48 % 0.00 in 587 W/m2
14:29 57.2 °F 37.7 °F 30.32 in ENE 4.0 mph 10.0 mph 48 % 0.00 in 534 W/m2
14:34 57.4 °F 37.8 °F 30.32 in ENE 5.0 mph 10.0 mph 48 % 0.00 in 566 W/m2
14:39 57.6 °F 36.9 °F 30.32 in ENE 5.0 mph 10.0 mph 46 % 0.00 in 575 W/m2
14:44 57.6 °F 36.9 °F 30.32 in East 5.0 mph 10.0 mph 46 % 0.00 in 478 W/m2
14:49 57.7 °F 36.5 °F 30.31 in East 5.0 mph 11.0 mph 45 % 0.00 in 504 W/m2
14:54 57.7 °F 36.5 °F 30.31 in East 5.0 mph 11.0 mph 45 % 0.00 in 406 W/m2
14:59 57.4 °F 36.2 °F 30.32 in ENE 5.0 mph 11.0 mph 45 % 0.00 in 422 W/m2
15:04 57.4 °F 36.2 °F 30.31 in ENE 5.0 mph 12.0 mph 45 % 0.00 in 531 W/m2
15:09 57.4 °F 35.6 °F 30.31 in ENE 6.0 mph 13.0 mph 44 % 0.00 in 443 W/m2
15:14 57.6 °F 35.8 °F 30.31 in ENE 6.0 mph 13.0 mph 44 % 0.00 in 492 W/m2
15:19 57.7 °F 36.5 °F 30.31 in ENE 6.0 mph 13.0 mph 45 % 0.00 in 506 W/m2
15:24 57.6 °F 36.4 °F 30.31 in ENE 6.0 mph 15.0 mph 45 % 0.00 in 483 W/m2
15:29 57.7 °F 37.1 °F 30.31 in ENE 6.0 mph 15.0 mph 46 % 0.00 in 490 W/m2
15:34 57.9 °F 37.2 °F 30.31 in ENE 5.0 mph 11.0 mph 46 % 0.00 in 462 W/m2
15:39 57.7 °F 36.5 °F 30.31 in ENE 6.0 mph 12.0 mph 45 % 0.00 in 499 W/m2
15:44 57.6 °F 36.4 °F 30.31 in East 7.0 mph 13.0 mph 45 % 0.00 in 461 W/m2
15:49 57.4 °F 36.2 °F 30.31 in East 6.0 mph 13.0 mph 45 % 0.00 in 471 W/m2
15:54 57.7 °F 36.5 °F 30.30 in East 5.0 mph 10.0 mph 45 % 0.00 in 448 W/m2
15:59 57.7 °F 36.5 °F 30.31 in East 6.0 mph 11.0 mph 45 % 0.00 in 446 W/m2
16:04 57.7 °F 36.0 °F 30.30 in East 7.0 mph 11.0 mph 44 % 0.00 in 431 W/m2
16:09 57.6 °F 36.4 °F 30.30 in ENE 6.0 mph 11.0 mph 45 % 0.00 in 396 W/m2
16:14 57.7 °F 36.5 °F 30.30 in East 6.0 mph 11.0 mph 45 % 0.00 in 387 W/m2
16:19 57.7 °F 36.5 °F 30.30 in East 6.0 mph 11.0 mph 45 % 0.00 in 415 W/m2
16:24 57.7 °F 36.0 °F 30.30 in East 7.0 mph 14.0 mph 44 % 0.00 in 346 W/m2
16:29 57.6 °F 36.4 °F 30.30 in East 7.0 mph 14.0 mph 45 % 0.00 in 401 W/m2
16:34 57.6 °F 36.4 °F 30.30 in East 6.0 mph 11.0 mph 45 % 0.00 in 367 W/m2
16:36 57.6 °F 36.4 °F 30.30 in East 6.0 mph 12.0 mph 45 % 0.00 in 397 W/m2
16:41 57.7 °F 37.1 °F 30.30 in East 5.0 mph 12.0 mph 46 % 0.00 in 392 W/m2
16:46 57.7 °F 36.5 °F 30.30 in East 5.0 mph 10.0 mph 45 % 0.00 in 353 W/m2
16:51 57.9 °F 37.8 °F 30.29 in East 5.0 mph 10.0 mph 47 % 0.00 in 316 W/m2
16:56 57.9 °F 37.8 °F 30.29 in East 4.0 mph 10.0 mph 47 % 0.00 in 283 W/m2
17:01 57.7 °F 38.2 °F 30.29 in ENE 5.0 mph 10.0 mph 48 % 0.00 in 297 W/m2
17:06 57.2 °F 38.7 °F 30.29 in ENE 6.0 mph 10.0 mph 50 % 0.00 in 278 W/m2
17:11 56.8 °F 38.9 °F 30.29 in East 7.0 mph 12.0 mph 51 % 0.00 in 285 W/m2
17:16 56.7 °F 38.7 °F 30.29 in East 6.0 mph 12.0 mph 51 % 0.00 in 251 W/m2
17:21 56.7 °F 39.2 °F 30.29 in East 5.0 mph 11.0 mph 52 % 0.00 in 265 W/m2
17:26 56.5 °F 39.5 °F 30.29 in East 5.0 mph 10.0 mph 53 % 0.00 in 250 W/m2
17:31 56.1 °F 38.7 °F 30.29 in East 5.0 mph 10.0 mph 52 % 0.00 in 227 W/m2
17:36 56.1 °F 38.7 °F 30.29 in East 6.0 mph 11.0 mph 52 % 0.00 in 227 W/m2
17:41 55.8 °F 37.9 °F 30.29 in East 6.0 mph 11.0 mph 51 % 0.00 in 213 W/m2
17:46 55.2 °F 37.9 °F 30.29 in East 6.0 mph 11.0 mph 52 % 0.00 in 158 W/m2
17:51 54.9 °F 38.0 °F 30.29 in East 6.0 mph 12.0 mph 53 % 0.00 in 120 W/m2
17:56 54.5 °F 38.2 °F 30.29 in East 6.0 mph 12.0 mph 54 % 0.00 in 88 W/m2
18:01 54.1 °F 38.3 °F 30.29 in East 6.0 mph 12.0 mph 55 % 0.00 in 74 W/m2
18:07 53.6 °F 37.8 °F 30.29 in ENE 5.0 mph 11.0 mph 55 % 0.00 in 69 W/m2
18:12 53.2 °F 38.4 °F 30.29 in ENE 5.0 mph 11.0 mph 57 % 0.00 in 67 W/m2
18:17 52.9 °F 37.6 °F 30.29 in East 5.0 mph 12.0 mph 56 % 0.00 in 63 W/m2
18:22 52.5 °F 37.3 °F 30.29 in East 5.0 mph 12.0 mph 56 % 0.00 in 60 W/m2
18:27 52.2 °F 36.9 °F 30.29 in East 6.0 mph 11.0 mph 56 % 0.00 in 54 W/m2
18:32 51.6 °F 36.9 °F 30.29 in ENE 6.0 mph 13.0 mph 57 % 0.00 in 47 W/m2
18:37 51.4 °F 36.7 °F 30.29 in ENE 6.0 mph 13.0 mph 57 % 0.00 in 46 W/m2
18:42 51.1 °F 36.4 °F 30.29 in ENE 5.0 mph 10.0 mph 57 % 0.00 in 44 W/m2
18:47 51.1 °F 36.8 °F 30.29 in East 4.0 mph 9.0 mph 58 % 0.00 in 37 W/m2
18:52 50.7 °F 36.9 °F 30.30 in East 4.0 mph 9.0 mph 59 % 0.00 in 35 W/m2
18:57 50.4 °F 37.0 °F 30.30 in ENE 5.0 mph 10.0 mph 60 % 0.00 in 32 W/m2
19:02 50.2 °F 36.8 °F 30.30 in ENE 5.0 mph 10.0 mph 60 % 0.00 in 28 W/m2
19:07 49.8 °F 36.9 °F 30.30 in East 6.0 mph 11.0 mph 61 % 0.00 in 21 W/m2
19:12 49.6 °F 37.1 °F 30.30 in ENE 6.0 mph 11.0 mph 62 % 0.00 in 16 W/m2
19:17 49.5 °F 37.4 °F 30.30 in East 4.0 mph 9.0 mph 63 % 0.00 in 11 W/m2
19:22 49.3 °F 37.6 °F 30.30 in East 3.0 mph 9.0 mph 64 % 0.00 in 7 W/m2
19:27 48.9 °F 37.7 °F 30.30 in East 3.0 mph 8.0 mph 65 % 0.00 in 0 W/m2
19:32 48.7 °F 37.9 °F 30.29 in ENE 3.0 mph 8.0 mph 66 % 0.00 in 0 W/m2
19:37 48.6 °F 37.7 °F 30.29 in ENE 4.0 mph 9.0 mph 66 % 0.00 in 0 W/m2
19:42 48.4 °F 37.9 °F 30.30 in ENE 4.0 mph 9.0 mph 67 % 0.00 in 0 W/m2
19:47 48.0 °F 37.6 °F 30.30 in ENE 3.0 mph 8.0 mph 67 % 0.00 in 0 W/m2
19:52 47.8 °F 37.8 °F 30.30 in ENE 3.0 mph 8.0 mph 68 % 0.00 in 0 W/m2
19:58 47.7 °F 37.6 °F 30.30 in ENE 4.0 mph 8.0 mph 68 % 0.00 in 0 W/m2
20:03 47.5 °F 37.8 °F 30.30 in ENE 3.0 mph 8.0 mph 69 % 0.00 in 0 W/m2
20:08 47.5 °F 37.8 °F 30.30 in ENE 3.0 mph 7.0 mph 69 % 0.00 in 0 W/m2
20:13 47.1 °F 37.8 °F 30.30 in ENE 3.0 mph 8.0 mph 70 % 0.00 in 0 W/m2
20:18 47.1 °F 37.8 °F 30.30 in ENE 4.0 mph 8.0 mph 70 % 0.00 in 0 W/m2
20:23 46.9 °F 38.0 °F 30.30 in ENE 5.0 mph 9.0 mph 71 % 0.00 in 0 W/m2
20:28 46.8 °F 37.9 °F 30.30 in ENE 5.0 mph 9.0 mph 71 % 0.00 in 0 W/m2
20:33 46.6 °F 37.7 °F 30.30 in ENE 4.0 mph 9.0 mph 71 % 0.00 in 0 W/m2
20:35 46.6 °F 37.7 °F 30.31 in ENE 4.0 mph 9.0 mph 71 % 0.00 in 0 W/m2
20:40 46.2 °F 37.7 °F 30.31 in ENE 4.0 mph 9.0 mph 72 % 0.00 in 0 W/m2
20:45 46.0 °F 37.5 °F 30.31 in East 3.0 mph 8.0 mph 72 % 0.00 in 0 W/m2
20:50 46.0 °F 37.5 °F 30.31 in East 2.0 mph 8.0 mph 72 % 0.00 in 0 W/m2
20:55 45.9 °F 37.7 °F 30.31 in ENE 2.0 mph 7.0 mph 73 % 0.00 in 0 W/m2
21:00 45.7 °F 37.9 °F 30.31 in ENE 2.0 mph 8.0 mph 74 % 0.00 in 0 W/m2
21:05 45.3 °F 37.5 °F 30.31 in ENE 3.0 mph 8.0 mph 74 % 0.00 in 0 W/m2
21:10 45.1 °F 38.0 °F 30.31 in ENE 3.0 mph 7.0 mph 76 % 0.00 in 0 W/m2
21:15 45.0 °F 38.2 °F 30.31 in ENE 4.0 mph 11.0 mph 77 % 0.00 in 0 W/m2
21:20 45.0 °F 38.2 °F 30.31 in ENE 5.0 mph 11.0 mph 77 % 0.00 in 0 W/m2
21:25 44.8 °F 38.7 °F 30.31 in ENE 5.0 mph 10.0 mph 79 % 0.00 in 0 W/m2
21:30 44.6 °F 38.8 °F 30.31 in ENE 5.0 mph 12.0 mph 80 % 0.00 in 0 W/m2
21:35 44.4 °F 38.6 °F 30.32 in ENE 4.0 mph 12.0 mph 80 % 0.00 in 0 W/m2
21:40 44.2 °F 38.8 °F 30.32 in ENE 4.0 mph 10.0 mph 81 % 0.00 in 0 W/m2
21:45 44.1 °F 38.9 °F 30.32 in ENE 5.0 mph 10.0 mph 82 % 0.00 in 0 W/m2
21:50 43.9 °F 38.7 °F 30.32 in ENE 5.0 mph 13.0 mph 82 % 0.00 in 0 W/m2
21:55 43.9 °F 39.4 °F 30.32 in East 6.0 mph 13.0 mph 84 % 0.00 in 0 W/m2
22:00 43.9 °F 39.7 °F 30.32 in ENE 6.0 mph 11.0 mph 85 % 0.00 in 0 W/m2
22:05 43.9 °F 40.0 °F 30.32 in East 6.0 mph 11.0 mph 86 % 0.00 in 0 W/m2
22:10 43.9 °F 40.3 °F 30.33 in East 6.0 mph 11.0 mph 87 % 0.00 in 0 W/m2
22:15 43.9 °F 40.6 °F 30.32 in East 5.0 mph 12.0 mph 88 % 0.00 in 0 W/m2
22:20 43.9 °F 40.6 °F 30.32 in East 5.0 mph 12.0 mph 88 % 0.00 in 0 W/m2
22:25 43.9 °F 40.8 °F 30.33 in East 6.0 mph 12.0 mph 89 % 0.00 in 0 W/m2
22:30 43.9 °F 40.8 °F 30.33 in East 6.0 mph 13.0 mph 89 % 0.00 in 0 W/m2
22:35 43.9 °F 40.8 °F 30.33 in East 6.0 mph 13.0 mph 89 % 0.00 in 0 W/m2
22:40 43.9 °F 40.6 °F 30.33 in East 6.0 mph 11.0 mph 88 % 0.00 in 0 W/m2
22:45 44.1 °F 40.7 °F 30.33 in East 5.0 mph 10.0 mph 88 % 0.00 in 0 W/m2
22:50 44.1 °F 40.7 °F 30.33 in ESE 6.0 mph 11.0 mph 88 % 0.00 in 0 W/m2
22:56 44.1 °F 40.4 °F 30.33 in ESE 8.0 mph 16.0 mph 87 % 0.00 in 0 W/m2
23:01 43.9 °F 40.3 °F 30.33 in ESE 8.0 mph 16.0 mph 87 % 0.00 in 0 W/m2
23:06 43.9 °F 40.3 °F 30.33 in ESE 6.0 mph 13.0 mph 87 % 0.00 in 0 W/m2
23:11 44.1 °F 40.4 °F 30.33 in ESE 5.0 mph 10.0 mph 87 % 0.00 in 0 W/m2
23:16 44.1 °F 40.4 °F 30.32 in East 6.0 mph 11.0 mph 87 % 0.00 in 0 W/m2
23:21 44.1 °F 40.4 °F 30.32 in East 5.0 mph 11.0 mph 87 % 0.00 in 0 W/m2
23:26 44.1 °F 40.4 °F 30.32 in ESE 5.0 mph 11.0 mph 87 % 0.00 in 0 W/m2
23:31 44.1 °F 40.4 °F 30.32 in ESE 5.0 mph 11.0 mph 87 % 0.00 in 0 W/m2
23:36 44.1 °F 40.4 °F 30.32 in East 3.0 mph 10.0 mph 87 % 0.00 in 0 W/m2
23:41 44.2 °F 40.6 °F 30.32 in East 2.0 mph 7.0 mph 87 % 0.00 in 0 W/m2
23:46 44.2 °F 40.6 °F 30.32 in East 2.0 mph 7.0 mph 87 % 0.00 in 0 W/m2
23:51 44.1 °F 40.4 °F 30.32 in East 4.0 mph 12.0 mph 87 % 0.00 in 0 W/m2
23:56 44.1 °F 40.4 °F 30.32 in ESE 6.0 mph 12.0 mph 87 % 0.00 in 0 W/m2
Delerius-Weather
Compliments of Weather Underground - 2.25 mb

Data updates at regular intervals.